Time;durP1;ratioP1;P1;durP2;ratioP2;P2;SDS_P1;SDS_P2;PMS_P1;PMS_P2;Temp;Humidity;BMP_temperature;BMP_pressure;BME280_temperature;BME280_humidity;BME280_pressure;Samples;Min_cycle;Max_cycle;Signal;HPM_P1;HPM_P2
2021/10/06 00:00:41;;;;;;;11.15;3.95;;;13.00;99.90;;;;;;5094237;28;20031;-74
2021/10/06 00:03:07;;;;;;;8.43;2.88;;;13.00;99.90;;;;;;5113042;28;20099;-75
2021/10/06 00:05:33;;;;;;;6.97;2.80;;;13.00;99.90;;;;;;5108871;28;20110;-75
2021/10/06 00:07:59;;;;;;;11.70;3.20;;;13.00;99.90;;;;;;5093118;28;20026;-75
2021/10/06 00:10:24;;;;;;;10.93;3.33;;;13.00;99.90;;;;;;5091690;28;20037;-75
2021/10/06 00:12:50;;;;;;;10.75;3.20;;;13.00;99.90;;;;;;5112397;28;20379;-75
2021/10/06 00:15:16;;;;;;;12.85;3.38;;;13.00;99.90;;;;;;5090742;28;20035;-75
2021/10/06 00:17:41;;;;;;;14.73;4.57;;;13.00;99.90;;;;;;5111263;28;20097;-75
2021/10/06 00:20:10;;;;;;;10.48;2.95;;;12.90;99.90;;;;;;5109763;28;20019;-74
2021/10/06 00:22:35;;;;;;;18.92;4.03;;;12.90;99.90;;;;;;5112229;28;20111;-75
2021/10/06 00:25:02;;;;;;;11.07;4.05;;;12.90;99.90;;;;;;5109520;28;20098;-75
2021/10/06 00:27:27;;;;;;;11.52;3.47;;;12.90;99.90;;;;;;5094432;28;20093;-75
2021/10/06 00:29:53;;;;;;;13.30;3.90;;;12.80;99.90;;;;;;5111408;28;20040;-75
2021/10/06 00:32:18;;;;;;;16.20;4.40;;;12.80;99.90;;;;;;5112723;28;20036;-75
2021/10/06 00:34:44;;;;;;;12.77;3.83;;;12.80;99.90;;;;;;5094684;28;20028;-75
2021/10/06 00:37:10;;;;;;;12.27;3.63;;;12.80;99.90;;;;;;5108813;28;20043;-75
2021/10/06 00:39:35;;;;;;;13.85;4.47;;;12.80;99.90;;;;;;5110403;27;20018;-75
2021/10/06 00:42:01;;;;;;;15.07;3.83;;;12.70;99.90;;;;;;5112776;28;20051;-75
2021/10/06 00:44:34;;;;;;;13.23;3.35;;;12.70;99.90;;;;;;5112191;28;20456;-75
2021/10/06 00:46:59;;;;;;;12.73;3.33;;;12.70;99.90;;;;;;5109093;28;20475;-75
2021/10/06 00:49:25;;;;;;;12.93;3.70;;;12.70;99.90;;;;;;5111789;28;20364;-75
2021/10/06 00:51:50;;;;;;;16.40;3.63;;;12.70;99.90;;;;;;5089935;28;20494;-75
2021/10/06 00:54:16;;;;;;;10.38;3.47;;;12.70;99.90;;;;;;5111818;28;20028;-75
2021/10/06 00:56:42;;;;;;;11.15;3.10;;;12.70;99.90;;;;;;5111140;28;20387;-75
2021/10/06 00:59:07;;;;;;;8.48;3.47;;;12.70;99.90;;;;;;5108816;28;20414;-75
2021/10/06 01:01:33;;;;;;;11.43;3.45;;;12.70;99.90;;;;;;5111900;28;20114;-75
2021/10/06 01:04:00;;;;;;;11.40;3.30;;;12.70;99.90;;;;;;5111282;28;20394;-75
2021/10/06 01:06:26;;;;;;;11.38;3.28;;;12.70;99.90;;;;;;5111413;28;20088;-75
2021/10/06 01:08:52;;;;;;;10.27;3.20;;;12.70;99.90;;;;;;5111384;28;20035;-76
2021/10/06 01:11:18;;;;;;;11.63;3.05;;;12.80;99.90;;;;;;5111723;28;20039;-75
2021/10/06 01:13:46;;;;;;;10.27;2.95;;;12.80;99.90;;;;;;5111833;28;20020;-74
2021/10/06 01:16:11;;;;;;;11.00;3.17;;;12.80;99.90;;;;;;5108691;28;20036;-75
2021/10/06 01:18:37;;;;;;;8.30;3.13;;;12.60;99.90;;;;;;5111215;28;20024;-75
2021/10/06 01:21:19;;;;;;;14.05;3.78;;;12.70;99.90;;;;;;5112076;28;20016;-75
2021/10/06 01:23:45;;;;;;;11.73;2.97;;;12.70;99.90;;;;;;5109338;28;20027;-75
2021/10/06 01:26:18;;;;;;;13.95;3.25;;;12.60;99.90;;;;;;5107964;28;20529;-75
2021/10/06 01:28:47;;;;;;;13.10;3.03;;;12.60;99.90;;;;;;5110126;28;20023;-75
2021/10/06 01:31:13;;;;;;;13.00;3.88;;;12.60;99.90;;;;;;5108312;27;20471;-75
2021/10/06 01:33:39;;;;;;;10.27;2.90;;;12.60;99.90;;;;;;5108490;28;20169;-75
2021/10/06 01:36:05;;;;;;;9.00;2.83;;;12.60;99.90;;;;;;5107285;28;20098;-75
2021/10/06 01:38:30;;;;;;;13.10;3.15;;;12.60;99.90;;;;;;5107581;28;20019;-75
2021/10/06 01:40:56;;;;;;;10.95;3.00;;;12.60;99.90;;;;;;5108548;28;20039;-75
2021/10/06 01:43:22;;;;;;;12.07;3.28;;;12.60;99.90;;;;;;5090015;28;20058;-75
2021/10/06 01:45:47;;;;;;;19.85;3.55;;;12.60;99.90;;;;;;5108703;28;20468;-75
2021/10/06 01:48:13;;;;;;;10.90;2.70;;;12.60;99.90;;;;;;5106898;28;20034;-75
2021/10/06 01:50:41;;;;;;;10.88;3.05;;;12.60;99.90;;;;;;5108947;28;20027;-74
2021/10/06 01:53:08;;;;;;;12.20;2.70;;;12.60;99.90;;;;;;5110900;28;20474;-75
2021/10/06 01:55:35;;;;;;;7.43;2.88;;;12.60;99.90;;;;;;5110793;28;20233;-75
2021/10/06 01:58:03;;;;;;;14.70;2.97;;;12.70;99.90;;;;;;5110261;28;20099;-74
2021/10/06 02:00:30;;;;;;;18.45;3.10;;;12.60;99.90;;;;;;5087943;28;20119;-75
2021/10/06 02:02:55;;;;;;;12.52;2.80;;;12.60;99.90;;;;;;5111723;28;20011;-75
2021/10/06 02:05:22;;;;;;;10.85;2.25;;;12.70;99.90;;;;;;5106825;28;20042;-75
2021/10/06 02:07:47;;;;;;;12.43;2.40;;;12.60;99.90;;;;;;5109468;28;20081;-74
2021/10/06 02:10:13;;;;;;;11.40;2.80;;;12.60;99.90;;;;;;5107369;28;20984;-75
2021/10/06 02:12:39;;;;;;;10.30;2.97;;;12.70;99.90;;;;;;5109344;28;20031;-75
2021/10/06 02:15:06;;;;;;;15.80;3.28;;;12.70;99.90;;;;;;5111336;28;20034;-75
2021/10/06 02:17:31;;;;;;;12.30;2.47;;;12.70;99.90;;;;;;5109681;28;20022;-75
2021/10/06 02:19:57;;;;;;;10.60;2.53;;;12.70;99.90;;;;;;5110752;28;20028;-75
2021/10/06 02:22:23;;;;;;;8.45;2.60;;;12.80;99.90;;;;;;5109345;28;20097;-75
2021/10/06 02:24:49;;;;;;;8.45;2.42;;;12.70;99.90;;;;;;5096787;28;20028;-75
2021/10/06 02:27:14;;;;;;;10.88;2.78;;;12.80;99.90;;;;;;5110748;28;20032;-75
2021/10/06 02:29:40;;;;;;;10.98;2.58;;;12.80;99.90;;;;;;5107719;28;20063;-75
2021/10/06 02:32:06;;;;;;;10.23;2.13;;;12.80;99.90;;;;;;5110596;28;20118;-75
2021/10/06 02:34:32;;;;;;;9.82;2.88;;;12.70;99.90;;;;;;5108125;28;20544;-75
2021/10/06 02:36:57;;;;;;;10.48;2.03;;;12.70;99.90;;;;;;5090164;28;20020;-75
2021/10/06 02:39:23;;;;;;;12.70;3.38;;;12.70;99.90;;;;;;5112033;28;20065;-75
2021/10/06 02:41:49;;;;;;;10.80;2.33;;;12.70;99.90;;;;;;5111920;27;20023;-75
2021/10/06 02:44:14;;;;;;;9.88;2.58;;;12.70;99.90;;;;;;5114964;28;20483;-75
2021/10/06 02:46:40;;;;;;;6.75;2.20;;;12.70;99.90;;;;;;5111950;27;20032;-75
2021/10/06 02:49:05;;;;;;;8.88;2.60;;;12.70;99.90;;;;;;5093248;28;20024;-75
2021/10/06 02:51:33;;;;;;;8.60;2.58;;;12.70;99.90;;;;;;5114022;28;20028;-75
2021/10/06 02:53:58;;;;;;;11.85;2.92;;;12.70;99.90;;;;;;5114761;28;20392;-75
2021/10/06 02:56:24;;;;;;;4.40;1.75;;;12.70;99.90;;;;;;5114262;28;20028;-75
2021/10/06 02:58:50;;;;;;;8.20;2.58;;;12.80;99.90;;;;;;5095553;28;20070;-75
2021/10/06 03:01:15;;;;;;;12.23;2.67;;;12.80;99.90;;;;;;5114178;28;20024;-74
2021/10/06 03:03:41;;;;;;;13.10;2.33;;;12.70;99.90;;;;;;5111169;27;20039;-75
2021/10/06 03:06:07;;;;;;;9.88;1.85;;;12.70;99.90;;;;;;5113668;28;20019;-75
2021/10/06 03:08:33;;;;;;;7.75;1.98;;;12.80;99.90;;;;;;5112274;28;20050;-75
2021/10/06 03:11:00;;;;;;;7.15;2.20;;;12.90;99.90;;;;;;5113750;28;20042;-75
2021/10/06 03:13:25;;;;;;;7.53;1.80;;;12.80;99.90;;;;;;5111315;27;20027;-75
2021/10/06 03:15:51;;;;;;;9.15;2.10;;;12.80;99.90;;;;;;5113560;28;20039;-75
2021/10/06 03:18:16;;;;;;;9.25;2.45;;;12.90;99.90;;;;;;5094106;28;20102;-74
2021/10/06 03:20:42;;;;;;;6.68;1.98;;;12.80;99.90;;;;;;5113378;28;20035;-75
2021/10/06 03:23:08;;;;;;;8.00;1.90;;;12.90;99.90;;;;;;5114880;28;20023;-74
2021/10/06 03:25:34;;;;;;;7.22;2.00;;;12.80;99.90;;;;;;5113804;28;20111;-74
2021/10/06 03:28:00;;;;;;;8.88;2.40;;;12.60;99.90;;;;;;5112112;28;20031;-74
2021/10/06 03:30:26;;;;;;;7.10;1.80;;;12.70;99.90;;;;;;5111373;27;20035;-74
2021/10/06 03:32:52;;;;;;;6.00;1.83;;;12.70;99.90;;;;;;5113539;28;20032;-74
2021/10/06 03:35:18;;;;;;;12.98;2.33;;;12.70;99.90;;;;;;5113243;28;20467;-74
2021/10/06 03:37:48;;;;;;;9.82;2.42;;;12.70;99.90;;;;;;5112532;28;20031;-74
2021/10/06 03:40:14;;;;;;;8.75;1.90;;;12.80;99.90;;;;;;5112031;28;20084;-74
2021/10/06 03:42:41;;;;;;;7.63;2.17;;;12.70;99.90;;;;;;5110454;27;20429;-74
2021/10/06 03:45:10;;;;;;;10.00;2.03;;;12.60;99.90;;;;;;5113345;28;20027;-74
2021/10/06 03:47:36;;;;;;;9.52;2.28;;;12.70;99.90;;;;;;5109674;28;20026;-74
2021/10/06 03:50:04;;;;;;;9.15;2.28;;;12.80;99.90;;;;;;5111611;28;20209;-74
2021/10/06 03:52:29;;;;;;;8.05;2.30;;;12.80;99.90;;;;;;5110189;28;20078;-74
2021/10/06 03:54:55;;;;;;;7.40;2.33;;;12.80;99.90;;;;;;5112534;28;20355;-74
2021/10/06 03:57:21;;;;;;;11.52;2.40;;;12.90;99.90;;;;;;5093057;28;20057;-74
2021/10/06 03:59:46;;;;;;;7.88;1.90;;;12.80;99.90;;;;;;5112256;28;20042;-74
2021/10/06 04:02:12;;;;;;;6.47;2.15;;;12.80;99.90;;;;;;5094459;28;20391;-74
2021/10/06 04:04:37;;;;;;;7.13;1.67;;;12.80;99.90;;;;;;5112742;28;20058;-74
2021/10/06 04:07:03;;;;;;;9.13;1.95;;;12.80;99.90;;;;;;5110225;27;20111;-74
2021/10/06 04:09:29;;;;;;;8.02;2.20;;;12.70;99.90;;;;;;5111762;28;20393;-74
2021/10/06 04:11:54;;;;;;;11.18;2.40;;;12.70;99.90;;;;;;5110768;28;20035;-75
2021/10/06 04:14:20;;;;;;;6.75;1.80;;;12.70;99.90;;;;;;5112221;28;20082;-74
2021/10/06 04:16:46;;;;;;;4.75;1.67;;;12.70;99.90;;;;;;5112791;28;20397;-74
2021/10/06 04:19:11;;;;;;;6.70;1.85;;;12.70;99.90;;;;;;5112101;28;20495;-74
2021/10/06 04:21:37;;;;;;;15.68;2.75;;;12.70;99.90;;;;;;5112389;28;20471;-74
2021/10/06 04:24:03;;;;;;;7.65;1.75;;;12.70;99.90;;;;;;5108887;28;20031;-75
2021/10/06 04:26:28;;;;;;;5.65;1.77;;;12.80;99.90;;;;;;5112731;28;20460;-74
2021/10/06 04:28:54;;;;;;;8.35;1.73;;;12.80;99.90;;;;;;5112207;28;20036;-74
2021/10/06 04:31:20;;;;;;;9.90;1.65;;;12.90;99.90;;;;;;5092652;28;20032;-74
2021/10/06 04:33:46;;;;;;;9.13;1.58;;;12.80;99.90;;;;;;5109148;28;20035;-74
2021/10/06 04:36:12;;;;;;;12.60;1.50;;;12.80;99.90;;;;;;5111642;28;20028;-75
2021/10/06 04:38:38;;;;;;;8.55;1.73;;;12.80;99.90;;;;;;5108018;28;20027;-74
2021/10/06 04:41:04;;;;;;;8.98;1.70;;;12.80;99.90;;;;;;5110586;28;20019;-74
2021/10/06 04:43:29;;;;;;;10.50;2.55;;;12.90;99.90;;;;;;5111873;28;20028;-74
2021/10/06 04:45:55;;;;;;;13.25;2.85;;;12.90;99.90;;;;;;5112134;28;20358;-75
2021/10/06 04:48:21;;;;;;;8.30;1.80;;;12.80;99.90;;;;;;5109388;27;20144;-75
2021/10/06 04:50:46;;;;;;;13.27;1.92;;;12.80;99.90;;;;;;5092062;28;20039;-75
2021/10/06 04:53:12;;;;;;;11.82;2.05;;;12.90;99.90;;;;;;5112434;28;20439;-75
2021/10/06 04:55:38;;;;;;;12.93;2.60;;;12.80;99.90;;;;;;5092122;28;20027;-75
2021/10/06 04:58:04;;;;;;;10.85;2.05;;;12.80;99.90;;;;;;5107860;28;20122;-75
2021/10/06 05:00:30;;;;;;;7.57;1.83;;;12.70;99.90;;;;;;5111468;28;20111;-76
2021/10/06 05:02:55;;;;;;;10.63;1.73;;;12.60;99.90;;;;;;5107698;28;20100;-76
2021/10/06 05:05:21;;;;;;;10.80;2.65;;;12.80;99.90;;;;;;5111793;28;20070;-75
2021/10/06 05:07:47;;;;;;;11.30;2.25;;;12.70;99.90;;;;;;5107722;27;20015;-75
2021/10/06 05:10:12;;;;;;;8.50;2.00;;;12.70;99.90;;;;;;5111648;28;20035;-75
2021/10/06 05:12:38;;;;;;;8.75;2.10;;;12.70;99.90;;;;;;5111526;28;20042;-76
2021/10/06 05:15:04;;;;;;;12.52;2.40;;;12.70;99.90;;;;;;5108105;28;20537;-75
2021/10/06 05:17:30;;;;;;;7.10;2.38;;;12.60;99.90;;;;;;5109471;28;20019;-75
2021/10/06 05:19:56;;;;;;;7.65;2.20;;;12.70;99.90;;;;;;5111384;28;20077;-75
2021/10/06 05:22:22;;;;;;;9.77;2.00;;;12.70;99.90;;;;;;5110705;28;20035;-76
2021/10/06 05:24:47;;;;;;;9.23;1.92;;;12.60;99.90;;;;;;5109358;28;20472;-76
2021/10/06 05:27:13;;;;;;;16.40;2.75;;;12.60;99.90;;;;;;5111415;28;20020;-76
2021/10/06 05:29:39;;;;;;;10.50;2.17;;;12.60;99.90;;;;;;5109035;28;20429;-75
2021/10/06 05:32:05;;;;;;;11.98;1.92;;;12.50;99.90;;;;;;5109244;28;20027;-75
2021/10/06 05:34:31;;;;;;;9.10;1.83;;;12.50;99.90;;;;;;5111642;28;20068;-75
2021/10/06 05:36:57;;;;;;;9.05;1.92;;;12.50;99.90;;;;;;5110727;28;20055;-75
2021/10/06 05:39:26;;;;;;;7.03;2.53;;;12.50;99.90;;;;;;5091450;28;20019;-76
2021/10/06 05:41:52;;;;;;;11.20;2.08;;;12.50;99.90;;;;;;5108090;27;20043;-75
2021/10/06 05:44:18;;;;;;;7.57;2.30;;;12.50;99.90;;;;;;5111156;28;20015;-75
2021/10/06 05:46:43;;;;;;;10.75;1.70;;;12.50;99.90;;;;;;5107715;28;20474;-75
2021/10/06 05:49:09;;;;;;;7.97;1.90;;;12.40;99.90;;;;;;5110836;28;20466;-75
2021/10/06 05:51:34;;;;;;;16.08;2.28;;;12.50;99.90;;;;;;5108881;28;20044;-75
2021/10/06 05:54:00;;;;;;;11.00;2.30;;;12.50;99.90;;;;;;5109840;28;20100;-75
2021/10/06 05:56:26;;;;;;;15.27;2.00;;;12.40;99.90;;;;;;5111204;28;20023;-75
2021/10/06 05:58:51;;;;;;;9.65;2.45;;;12.50;99.90;;;;;;5110844;28;20028;-75
2021/10/06 06:01:17;;;;;;;10.05;2.13;;;12.50;99.90;;;;;;5110572;28;20031;-75
2021/10/06 06:03:42;;;;;;;11.32;2.08;;;12.50;99.90;;;;;;5110451;28;20527;-75
2021/10/06 06:06:09;;;;;;;8.90;2.20;;;12.50;99.90;;;;;;5110936;28;20035;-75
2021/10/06 06:08:35;;;;;;;11.35;2.70;;;12.40;99.90;;;;;;5110566;28;20026;-74
2021/10/06 06:11:02;;;;;;;12.98;2.38;;;12.40;99.90;;;;;;5107227;28;20062;-73
2021/10/06 06:13:28;;;;;;;8.20;2.35;;;12.40;99.90;;;;;;5109896;28;20028;-74
2021/10/06 06:15:53;;;;;;;10.82;2.00;;;12.40;99.90;;;;;;5114772;28;20032;-73
2021/10/06 06:18:20;;;;;;;16.30;2.50;;;12.40;99.90;;;;;;5111990;27;20046;-73
2021/10/06 06:20:46;;;;;;;5.65;2.10;;;12.30;99.90;;;;;;5113435;28;20023;-73
2021/10/06 06:23:12;;;;;;;9.60;2.50;;;12.40;99.90;;;;;;5115244;28;20019;-73
2021/10/06 06:25:38;;;;;;;11.75;2.30;;;12.30;99.90;;;;;;5090647;28;20045;-73
2021/10/06 06:28:04;;;;;;;9.93;2.45;;;12.30;99.90;;;;;;5111316;28;20050;-73
2021/10/06 06:30:30;;;;;;;9.88;2.45;;;12.40;99.90;;;;;;5099849;28;20055;-73
2021/10/06 06:32:56;;;;;;;13.35;3.00;;;12.30;99.90;;;;;;5114434;28;20024;-73
2021/10/06 06:35:22;;;;;;;11.48;2.53;;;12.30;99.90;;;;;;5111404;28;20374;-73
2021/10/06 06:37:47;;;;;;;9.73;2.80;;;12.30;99.90;;;;;;5113828;28;20528;-72
2021/10/06 06:40:14;;;;;;;9.10;2.05;;;12.30;99.90;;;;;;5111511;28;20032;-72
2021/10/06 06:42:40;;;;;;;8.88;2.70;;;12.30;99.90;;;;;;5094852;28;20047;-73
2021/10/06 06:45:06;;;;;;;14.25;3.33;;;12.40;99.90;;;;;;5110186;28;20435;-73
2021/10/06 06:47:32;;;;;;;9.50;2.47;;;12.40;99.90;;;;;;5113906;28;20055;-73
2021/10/06 06:49:58;;;;;;;11.35;2.88;;;12.40;99.90;;;;;;5110416;27;20055;-73
2021/10/06 06:52:23;;;;;;;8.63;2.53;;;12.50;99.90;;;;;;5094286;28;20032;-73
2021/10/06 06:54:49;;;;;;;8.25;2.38;;;12.50;99.90;;;;;;5112290;28;20356;-73
2021/10/06 06:57:14;;;;;;;15.32;2.88;;;12.50;99.90;;;;;;5094810;28;20023;-74
2021/10/06 06:59:40;;;;;;;10.68;2.88;;;12.50;99.90;;;;;;5112681;28;20032;-74
2021/10/06 07:02:06;;;;;;;8.68;3.10;;;12.40;99.90;;;;;;5113014;28;20054;-74
2021/10/06 07:04:31;;;;;;;9.57;2.45;;;12.50;99.90;;;;;;5110020;28;20020;-74
2021/10/06 07:06:58;;;;;;;8.25;2.42;;;12.50;99.90;;;;;;5112921;28;20107;-73
2021/10/06 07:09:29;;;;;;;7.20;2.90;;;12.50;99.90;;;;;;5113760;28;20027;-73
2021/10/06 07:11:55;;;;;;;12.20;3.60;;;12.50;99.90;;;;;;5110422;28;20412;-73
2021/10/06 07:14:21;;;;;;;7.53;3.25;;;12.50;99.90;;;;;;5113119;28;20024;-73
2021/10/06 07:16:47;;;;;;;12.00;3.00;;;12.60;99.90;;;;;;5094155;28;20055;-73
2021/10/06 07:19:13;;;;;;;14.02;3.22;;;12.60;99.90;;;;;;5109892;27;20028;-73
2021/10/06 07:21:43;;;;;;;8.77;2.90;;;12.60;99.90;;;;;;5112518;28;20027;-73
2021/10/06 07:24:14;;;;;;;8.20;2.95;;;12.70;99.90;;;;;;5109295;28;21870;-73
2021/10/06 07:26:41;;;;;;;7.18;2.72;;;12.60;99.90;;;;;;5110462;28;20023;-73
2021/10/06 07:29:07;;;;;;;6.53;2.72;;;12.60;99.90;;;;;;5109305;28;20023;-73
2021/10/06 07:31:33;;;;;;;6.72;2.80;;;12.60;99.90;;;;;;5112238;28;20382;-73
2021/10/06 07:33:59;;;;;;;6.90;3.03;;;12.60;99.90;;;;;;5110673;28;20032;-74
2021/10/06 07:36:25;;;;;;;10.18;2.78;;;12.50;99.90;;;;;;5110940;27;20031;-74
2021/10/06 07:38:53;;;;;;;6.25;2.70;;;12.50;99.90;;;;;;5110274;28;20043;-74
2021/10/06 07:41:19;;;;;;;6.45;2.90;;;12.60;99.90;;;;;;5110220;28;20019;-74
2021/10/06 07:43:44;;;;;;;9.43;3.22;;;12.70;99.90;;;;;;5108381;28;20102;-74
2021/10/06 07:46:11;;;;;;;10.18;3.38;;;12.70;99.90;;;;;;5112853;28;20114;-74
2021/10/06 07:48:37;;;;;;;9.75;3.25;;;12.70;99.90;;;;;;5110441;28;20020;-73
2021/10/06 07:51:03;;;;;;;5.78;3.28;;;12.70;99.90;;;;;;5111496;28;20035;-73
2021/10/06 07:53:28;;;;;;;8.55;3.13;;;12.70;99.90;;;;;;5111236;28;20024;-73
2021/10/06 07:55:54;;;;;;;8.65;2.70;;;12.80;99.90;;;;;;5091050;28;20042;-73
2021/10/06 07:58:20;;;;;;;7.72;3.00;;;12.80;99.90;;;;;;5112261;28;20375;-74
2021/10/06 08:00:45;;;;;;;9.80;3.42;;;12.80;99.90;;;;;;5108988;28;20031;-74
2021/10/06 08:03:11;;;;;;;8.70;3.13;;;12.90;99.90;;;;;;5112886;28;20024;-74
2021/10/06 08:05:37;;;;;;;5.88;2.72;;;12.90;99.90;;;;;;5090428;28;20062;-74
2021/10/06 08:08:03;;;;;;;9.32;3.22;;;12.90;99.90;;;;;;5112297;28;20034;-74
2021/10/06 08:10:29;;;;;;;9.05;3.30;;;12.80;99.90;;;;;;5112735;28;20092;-75
2021/10/06 08:12:54;;;;;;;9.65;3.90;;;12.90;99.90;;;;;;5112829;28;20429;-74
2021/10/06 08:15:20;;;;;;;7.50;3.45;;;12.90;99.90;;;;;;5113239;28;20112;-74
2021/10/06 08:17:46;;;;;;;9.02;3.05;;;12.90;99.90;;;;;;5112440;28;20051;-74
2021/10/06 08:20:11;;;;;;;8.80;3.33;;;13.00;99.90;;;;;;5112523;28;20023;-74
2021/10/06 08:22:37;;;;;;;6.55;3.45;;;13.00;99.90;;;;;;5112858;28;20024;-74
2021/10/06 08:25:04;;;;;;;8.05;3.28;;;13.10;99.90;;;;;;5111865;28;20016;-75
2021/10/06 08:27:29;;;;;;;7.40;3.10;;;13.00;99.90;;;;;;5108646;27;20032;-74
2021/10/06 08:29:55;;;;;;;6.80;2.30;;;13.10;99.90;;;;;;5111973;28;20034;-75
2021/10/06 08:32:20;;;;;;;9.50;3.10;;;13.10;99.90;;;;;;5109687;28;20039;-74
2021/10/06 08:34:47;;;;;;;6.35;2.90;;;13.00;99.90;;;;;;5093788;28;20042;-75
2021/10/06 08:37:13;;;;;;;7.13;2.88;;;13.10;99.90;;;;;;5107253;28;20051;-76
2021/10/06 08:39:39;;;;;;;3.67;2.58;;;13.00;99.90;;;;;;5110981;28;20046;-76
2021/10/06 08:42:07;;;;;;;6.68;3.10;;;13.00;99.90;;;;;;5112886;28;20080;-75
2021/10/06 08:44:35;;;;;;;3.83;2.33;;;13.00;99.90;;;;;;5109077;28;20364;-78
2021/10/06 08:47:01;;;;;;;4.20;2.60;;;13.00;99.90;;;;;;5111343;28;20023;-76
2021/10/06 08:49:27;;;;;;;5.40;2.58;;;13.00;99.90;;;;;;5106779;28;20030;-76
2021/10/06 08:51:54;;;;;;;4.60;2.63;;;13.00;99.90;;;;;;5108035;28;20040;-75
2021/10/06 08:54:20;;;;;;;4.15;2.28;;;13.10;99.90;;;;;;5110767;28;20007;-75
2021/10/06 08:56:49;;;;;;;6.50;2.45;;;13.10;99.90;;;;;;5111514;28;20102;-74
2021/10/06 08:59:15;;;;;;;5.25;2.03;;;13.20;99.90;;;;;;5107469;28;20046;-74
2021/10/06 09:01:45;;;;;;;2.88;2.20;;;13.20;99.90;;;;;;5110411;28;20032;-74
2021/10/06 09:04:12;;;;;;;4.32;2.00;;;13.10;99.90;;;;;;5111320;28;20035;-77
2021/10/06 09:06:45;;;;;;;7.03;2.45;;;13.20;99.90;;;;;;5109877;28;20502;-78
2021/10/06 09:09:22;;;;;;;2.47;2.28;;;13.20;99.90;;;;;;5111592;28;20030;-78
2021/10/06 09:11:53;;;;;;;2.50;1.90;;;13.20;99.90;;;;;;5109549;28;20042;-74
2021/10/06 09:14:21;;;;;;;5.03;2.30;;;13.10;99.90;;;;;;5108366;28;20379;-73
2021/10/06 09:17:02;;;;;;;2.60;2.35;;;13.20;99.90;;;;;;5108387;28;20391;-76
2021/10/06 09:19:43;;;;;;;4.70;2.28;;;13.20;99.90;;;;;;5109119;28;20075;-72
2021/10/06 09:22:19;;;;;;;5.80;2.67;;;13.30;99.90;;;;;;5111100;28;20027;-75
2021/10/06 09:25:03;;;;;;;3.42;3.03;;;13.40;99.90;;;;;;5110370;28;20027;-73
2021/10/06 09:27:32;;;;;;;3.20;2.90;;;13.40;99.90;;;;;;5106229;28;20028;-74
2021/10/06 09:30:00;;;;;;;4.10;2.22;;;13.40;99.90;;;;;;5109804;28;20051;-73
2021/10/06 09:32:41;;;;;;;4.70;1.85;;;13.40;99.90;;;;;;5111154;28;20066;-73
2021/10/06 09:35:21;;;;;;;2.95;2.28;;;13.30;99.90;;;;;;5109145;28;20007;-73
2021/10/06 09:37:49;;;;;;;4.50;2.50;;;13.30;99.90;;;;;;5108610;28;20058;-73
2021/10/06 09:40:18;;;;;;;3.60;2.03;;;13.20;99.90;;;;;;5106742;28;20119;-73
2021/10/06 09:42:46;;;;;;;4.07;1.85;;;13.30;99.90;;;;;;5110780;28;20026;-74
2021/10/06 09:45:26;;;;;;;4.18;1.88;;;13.30;99.90;;;;;;5088957;28;20016;-74
2021/10/06 09:47:59;;;;;;;3.90;2.10;;;13.30;99.90;;;;;;5108676;28;20391;-73
2021/10/06 09:50:25;;;;;;;4.72;2.40;;;13.40;99.90;;;;;;5107389;28;20115;-73
2021/10/06 09:52:52;;;;;;;3.55;2.33;;;13.40;99.90;;;;;;5109496;28;20475;-73
2021/10/06 09:55:19;;;;;;;4.18;2.65;;;13.50;99.90;;;;;;5116330;27;20020;-73
2021/10/06 09:57:46;;;;;;;3.47;2.50;;;13.50;99.90;;;;;;5118297;27;20039;-73
2021/10/06 10:00:17;;;;;;;2.75;2.53;;;13.50;99.90;;;;;;5120545;28;20023;-74
2021/10/06 10:02:43;;;;;;;4.28;3.10;;;13.50;99.90;;;;;;5108002;28;20030;-74
2021/10/06 10:05:10;;;;;;;2.95;2.45;;;13.50;99.90;;;;;;5089705;28;20030;-74
2021/10/06 10:07:37;;;;;;;4.85;3.42;;;13.40;99.90;;;;;;5108920;28;20061;-74
2021/10/06 10:10:05;;;;;;;3.33;2.40;;;13.50;99.90;;;;;;5111731;28;20065;-73
2021/10/06 10:12:32;;;;;;;4.30;3.22;;;13.60;99.90;;;;;;5109081;28;20035;-73
2021/10/06 10:15:01;;;;;;;3.08;2.70;;;13.50;99.90;;;;;;5107996;28;20016;-73
2021/10/06 10:17:27;;;;;;;6.03;2.90;;;13.50;99.90;;;;;;5108188;28;20034;-73
2021/10/06 10:20:15;;;;;;;3.30;2.97;;;13.60;99.90;;;;;;5108893;28;20053;-73
2021/10/06 10:22:50;;;;;;;3.15;2.42;;;13.60;99.90;;;;;;5108786;28;20020;-74
2021/10/06 10:25:17;;;;;;;3.78;2.75;;;13.60;99.90;;;;;;5106946;28;20035;-73
2021/10/06 10:28:07;;;;;;;2.97;2.58;;;13.60;99.90;;;;;;5104687;28;20459;-73
2021/10/06 10:30:35;;;;;;;3.17;2.80;;;13.70;99.90;;;;;;5108647;28;20039;-74
2021/10/06 10:33:02;;;;;;;2.88;2.58;;;13.80;99.90;;;;;;5109391;28;20028;-74
2021/10/06 10:35:42;;;;;;;4.00;2.67;;;13.90;99.90;;;;;;5107316;28;20034;-74
2021/10/06 10:38:18;;;;;;;3.67;3.33;;;14.00;99.90;;;;;;5108472;28;20028;-74
2021/10/06 10:40:49;;;;;;;3.47;3.03;;;14.00;99.90;;;;;;5104015;28;20039;-74
2021/10/06 10:43:23;;;;;;;3.35;2.58;;;14.20;99.90;;;;;;5107443;28;20016;-74
2021/10/06 10:46:09;;;;;;;4.40;2.30;;;14.20;99.90;;;;;;5105072;28;20029;-73
2021/10/06 10:49:00;;;;;;;2.40;2.15;;;14.20;99.90;;;;;;5090999;28;20381;-74
2021/10/06 10:51:45;;;;;;;2.58;2.38;;;14.20;99.90;;;;;;5103610;28;20043;-74
2021/10/06 10:54:12;;;;;;;4.70;2.50;;;14.30;99.90;;;;;;5109801;28;20076;-74
2021/10/06 10:56:49;;;;;;;3.50;2.10;;;14.40;99.90;;;;;;5109014;28;20053;-74
2021/10/06 10:59:26;;;;;;;2.40;2.20;;;14.40;99.90;;;;;;5106732;28;20102;-74
2021/10/06 11:01:55;;;;;;;4.47;2.75;;;14.50;99.90;;;;;;5114637;28;20031;-74
2021/10/06 11:04:29;;;;;;;3.08;2.15;;;14.50;99.90;;;;;;5110071;28;20073;-73
2021/10/06 11:07:10;;;;;;;2.70;2.30;;;14.40;99.90;;;;;;5114196;27;20016;-74
2021/10/06 11:09:36;;;;;;;4.97;2.42;;;14.50;99.90;;;;;;5108283;28;20020;-74
2021/10/06 11:12:05;;;;;;;3.08;2.40;;;14.40;99.90;;;;;;5115573;28;20031;-74
2021/10/06 11:14:32;;;;;;;4.43;2.97;;;14.40;99.90;;;;;;5113159;28;20507;-74
2021/10/06 11:17:07;;;;;;;3.75;2.72;;;14.40;99.90;;;;;;5113435;28;20047;-75
2021/10/06 11:19:45;;;;;;;3.13;2.72;;;14.40;99.90;;;;;;5113408;28;20024;-74
2021/10/06 11:22:31;;;;;;;4.88;3.22;;;14.40;99.90;;;;;;5115351;28;20034;-74
2021/10/06 11:25:05;;;;;;;3.45;3.15;;;14.40;99.90;;;;;;5096584;28;20046;-74
2021/10/06 11:27:51;;;;;;;6.32;3.42;;;14.40;99.90;;;;;;5109881;27;20020;-74
2021/10/06 11:30:19;;;;;;;4.68;4.18;;;14.50;99.90;;;;;;5113426;28;20039;-74
2021/10/06 11:32:52;;;;;;;7.20;4.40;;;14.50;99.90;;;;;;5092152;28;20039;-74
2021/10/06 11:35:18;;;;;;;8.75;4.93;;;14.60;99.90;;;;;;5112285;28;20381;-74
2021/10/06 11:37:44;;;;;;;6.10;5.03;;;14.50;99.90;;;;;;5109086;28;20015;-74
2021/10/06 11:40:15;;;;;;;8.00;5.07;;;14.50;99.90;;;;;;5113974;28;20103;-73
2021/10/06 11:42:41;;;;;;;6.60;5.40;;;14.50;99.90;;;;;;5113905;28;20028;-73
2021/10/06 11:45:23;;;;;;;6.70;5.35;;;14.60;99.90;;;;;;5114049;28;20064;-74
2021/10/06 11:47:48;;;;;;;8.18;5.63;;;14.60;99.90;;;;;;5113154;28;20016;-73
2021/10/06 11:50:14;;;;;;;10.02;6.78;;;14.60;99.90;;;;;;5113866;28;20153;-76
2021/10/06 11:52:40;;;;;;;9.05;4.93;;;14.60;99.90;;;;;;5113810;28;20115;-74
2021/10/06 11:55:07;;;;;;;7.82;4.78;;;14.50;99.90;;;;;;5110398;28;20034;-74
2021/10/06 11:57:32;;;;;;;8.02;5.10;;;14.50;99.90;;;;;;5112302;28;20016;-73
2021/10/06 11:59:58;;;;;;;6.25;5.38;;;14.60;99.90;;;;;;5112824;28;20030;-74
2021/10/06 12:02:24;;;;;;;8.32;5.10;;;14.70;99.90;;;;;;5113111;28;20027;-74
2021/10/06 12:04:54;;;;;;;8.70;4.93;;;14.70;99.90;;;;;;5114205;28;20028;-74
2021/10/06 12:07:23;;;;;;;7.93;4.55;;;14.70;99.90;;;;;;5113013;28;20051;-77
2021/10/06 12:09:55;;;;;;;5.78;4.70;;;14.80;99.90;;;;;;5113739;28;20011;-73
2021/10/06 12:12:23;;;;;;;9.82;5.22;;;14.90;99.90;;;;;;5113125;28;20032;-74
2021/10/06 12:14:52;;;;;;;6.65;5.03;;;14.90;99.90;;;;;;5113954;28;20016;-74
2021/10/06 12:17:25;;;;;;;9.95;5.18;;;14.90;99.90;;;;;;5113076;28;20031;-74
2021/10/06 12:20:02;;;;;;;6.50;4.10;;;15.00;99.90;;;;;;5095515;28;20070;-74
2021/10/06 12:22:41;;;;;;;9.45;5.07;;;15.00;99.90;;;;;;5113891;28;20046;-74
2021/10/06 12:25:08;;;;;;;11.02;6.03;;;15.00;99.90;;;;;;5108245;28;20379;-74
2021/10/06 12:27:36;;;;;;;6.72;4.15;;;14.90;99.90;;;;;;5111947;28;20023;-74
2021/10/06 12:30:08;;;;;;;7.25;4.65;;;15.00;99.90;;;;;;5112695;28;20477;-74
2021/10/06 12:32:34;;;;;;;11.27;4.50;;;15.00;99.90;;;;;;5113346;28;20032;-74
2021/10/06 12:35:10;;;;;;;9.88;4.07;;;15.00;99.90;;;;;;5113976;28;20250;-74
2021/10/06 12:37:51;;;;;;;12.65;3.35;;;15.00;99.90;;;;;;5112442;28;20058;-74
2021/10/06 12:40:41;;;;;;;7.53;3.75;;;15.10;99.90;;;;;;5113545;28;20035;-74
2021/10/06 12:43:08;;;;;;;10.95;3.83;;;15.10;99.90;;;;;;5108885;28;20008;-74
2021/10/06 12:45:53;;;;;;;10.93;4.30;;;15.10;99.90;;;;;;5111851;28;20067;-74